Time;durP1;ratioP1;P1;durP2;ratioP2;P2;SDS_P1;SDS_P2;PMS_P1;PMS_P2;Temp;Humidity;BMP_temperature;BMP_pressure;BME280_temperature;BME280_humidity;BME280_pressure;Samples;Min_cycle;Max_cycle;Signal;HPM_P1;HPM_P2
2022/06/29 00:00:45;;;;;;;23.73;9.18;;;;;;;13.97;51.03;100703.34;4836881;29;20041;-78
2022/06/29 00:03:11;;;;;;;26.13;14.23;;;;;;;14.02;51.34;100716.38;4834900;29;20073;-79
2022/06/29 00:05:38;;;;;;;21.27;10.10;;;;;;;13.83;51.59;100702.59;4820915;29;20719;-79
2022/06/29 00:08:04;;;;;;;20.55;9.05;;;;;;;13.86;51.56;100729.59;4820812;29;20118;-78
2022/06/29 00:10:30;;;;;;;18.90;9.82;;;;;;;13.76;51.91;100708.75;4816971;29;20065;-78
2022/06/29 00:12:56;;;;;;;23.23;11.65;;;;;;;13.77;51.85;100706.13;4807760;29;20071;-77
2022/06/29 00:15:23;;;;;;;18.98;11.68;;;;;;;13.83;52.19;100716.53;4786941;29;20627;-78
2022/06/29 00:17:49;;;;;;;25.55;11.07;;;;;;;13.79;52.06;100716.56;4800693;29;20421;-79
2022/06/29 00:20:16;;;;;;;17.33;8.55;;;;;;;13.68;52.54;100711.44;4814563;29;20042;-77
2022/06/29 00:22:44;;;;;;;19.42;9.15;;;;;;;13.69;52.57;100721.88;4798729;29;20061;-77
2022/06/29 00:25:12;;;;;;;15.32;7.57;;;;;;;13.48;52.94;100699.34;4797527;29;20042;-79
2022/06/29 00:27:39;;;;;;;16.40;7.30;;;;;;;13.59;53.06;100725.44;4816401;29;20050;-81
2022/06/29 00:30:06;;;;;;;23.60;8.40;;;;;;;13.59;53.46;100729.78;4816899;29;20501;-76
2022/06/29 00:32:32;;;;;;;17.65;6.57;;;;;;;13.55;53.51;100718.47;4816110;29;20050;-77
2022/06/29 00:34:59;;;;;;;18.15;6.38;;;;;;;13.50;53.85;100715.91;4799729;29;20121;-79
2022/06/29 00:37:26;;;;;;;14.27;8.35;;;;;;;13.48;54.19;100720.28;4816734;29;20046;-79
2022/06/29 00:39:52;;;;;;;19.88;8.88;;;;;;;13.48;54.09;100732.47;4815593;29;20072;-78
2022/06/29 00:42:18;;;;;;;17.98;8.18;;;;;;;13.34;53.96;100711.63;4816534;29;20089;-79
2022/06/29 00:44:44;;;;;;;15.30;7.38;;;;;;;13.26;54.20;100712.53;4783626;29;20095;-79
2022/06/29 00:47:10;;;;;;;15.15;7.88;;;;;;;13.28;54.23;100722.09;4814886;29;20118;-78
2022/06/29 00:49:36;;;;;;;15.98;6.88;;;;;;;13.28;54.52;100732.56;4786021;29;20038;-79
2022/06/29 00:52:08;;;;;;;14.20;6.32;;;;;;;13.17;54.12;100723.00;4816255;29;20713;-80
2022/06/29 00:54:45;;;;;;;23.85;6.72;;;;;;;13.06;54.49;100712.63;4815779;29;20107;-77
2022/06/29 00:57:15;;;;;;;22.65;6.13;;;;;;;13.08;54.72;100710.00;4815613;29;20144;-78
2022/06/29 00:59:44;;;;;;;12.38;6.18;;;;;;;13.08;54.62;100721.31;4799835;29;20606;-79
2022/06/29 01:02:12;;;;;;;21.50;7.45;;;;;;;13.03;54.97;100711.78;4818155;29;20137;-79
2022/06/29 01:04:39;;;;;;;17.95;6.90;;;;;;;13.10;54.77;100729.16;4816035;29;20042;-79
2022/06/29 01:07:06;;;;;;;12.50;6.25;;;;;;;13.05;55.08;100723.09;4815723;29;20129;-78
2022/06/29 01:09:33;;;;;;;22.00;6.53;;;;;;;13.00;55.16;100717.88;4803468;29;20069;-79
2022/06/29 01:11:59;;;;;;;17.13;5.97;;;;;;;13.09;55.43;100723.06;4800796;29;20412;-80
2022/06/29 01:14:26;;;;;;;15.45;5.68;;;;;;;13.07;55.28;100724.81;4815002;29;20070;-78
2022/06/29 01:16:52;;;;;;;14.32;6.00;;;;;;;13.03;55.60;100711.78;4813798;29;20058;-78
2022/06/29 01:19:18;;;;;;;11.40;5.32;;;;;;;13.09;55.55;100719.59;4798420;29;20110;-79
2022/06/29 01:21:50;;;;;;;15.05;5.40;;;;;;;13.04;55.65;100719.59;4816417;29;20050;-79
2022/06/29 01:24:16;;;;;;;;;;;;;;;13.10;55.59;100719.56;4796791;29;20072;-81
2022/06/29 01:26:42;;;;;;;9.45;5.10;;;;;;;13.07;55.68;100719.56;4792451;29;19925;-80
2022/06/29 01:29:09;;;;;;;12.45;4.95;;;;;;;13.05;55.54;100712.63;4784867;29;20043;-77
2022/06/29 01:31:35;;;;;;;11.27;4.95;;;;;;;13.16;55.37;100728.25;4794597;29;20136;-79
2022/06/29 01:34:02;;;;;;;13.65;4.90;;;;;;;13.07;55.63;100708.28;4838413;29;20034;-78
2022/06/29 01:36:28;;;;;;;11.82;4.65;;;;;;;13.16;55.37;100729.13;4837417;29;20116;-78
2022/06/29 01:38:54;;;;;;;11.57;4.47;;;;;;;13.21;55.57;100732.59;4812581;29;20469;-80
2022/06/29 01:41:20;;;;;;;12.13;5.38;;;;;;;13.16;55.58;100721.28;4808100;29;20054;-79
2022/06/29 01:43:46;;;;;;;12.88;4.80;;;;;;;13.25;55.65;100717.75;4819313;29;20670;-81
2022/06/29 01:46:12;;;;;;;9.88;4.50;;;;;;;13.30;55.84;100717.75;4812642;29;20054;-79
2022/06/29 01:48:38;;;;;;;8.60;4.13;;;;;;;13.36;55.80;100723.78;4819406;29;20122;-78
2022/06/29 01:51:04;;;;;;;13.65;4.10;;;;;;;13.36;55.90;100708.13;4810656;29;20054;-79
2022/06/29 01:53:29;;;;;;;6.15;4.10;;;;;;;13.55;56.07;100727.22;4817578;29;20188;-80
2022/06/29 01:55:56;;;;;;;13.38;5.10;;;;;;;13.54;55.60;100708.91;4802914;29;20573;-79
2022/06/29 01:58:22;;;;;;;11.23;4.95;;;;;;;13.68;55.50;100733.19;4804335;29;20109;-78
2022/06/29 02:00:48;;;;;;;10.52;4.95;;;;;;;13.73;55.72;100732.31;4786589;29;20053;-77
2022/06/29 02:03:14;;;;;;;11.85;5.00;;;;;;;13.59;55.67;100699.28;4819288;29;20429;-79
2022/06/29 02:05:40;;;;;;;14.00;4.90;;;;;;;13.76;55.62;100713.97;4818252;29;20057;-77
2022/06/29 02:08:06;;;;;;;10.93;4.57;;;;;;;13.81;55.64;100717.44;4795475;29;20046;-78
2022/06/29 02:10:33;;;;;;;8.75;4.05;;;;;;;13.96;55.63;100733.00;4804030;29;20058;-78
2022/06/29 02:12:59;;;;;;;5.07;3.50;;;;;;;14.12;55.43;100735.50;4818770;29;20095;-79
2022/06/29 02:15:25;;;;;;;9.07;3.95;;;;;;;14.11;55.20;100720.69;4820985;29;20046;-78
2022/06/29 02:17:52;;;;;;;6.57;3.28;;;;;;;14.32;55.13;100737.94;4822089;29;20038;-77
2022/06/29 02:20:18;;;;;;;6.85;3.30;;;;;;;14.36;54.69;100730.91;4783653;29;20046;-77
2022/06/29 02:22:44;;;;;;;6.57;2.95;;;;;;;14.48;54.40;100740.38;4796732;29;20053;-79
2022/06/29 02:25:10;;;;;;;7.95;3.55;;;;;;;14.58;54.20;100734.19;4811345;29;20034;-78
2022/06/29 02:27:40;;;;;;;8.68;3.17;;;;;;;14.59;53.86;100723.69;4802261;29;20055;-79
2022/06/29 02:30:09;;;;;;;5.95;3.30;;;;;;;14.63;53.64;100718.41;4804897;29;20054;-78
2022/06/29 02:35:19;;;;;;;7.75;3.22;;;;;;;14.83;53.27;100723.47;4817840;29;20050;-80
2022/06/29 02:37:45;;;;;;;6.18;3.42;;;;;;;14.89;53.14;100720.78;4817251;29;20046;-78
2022/06/29 02:40:11;;;;;;;9.18;3.30;;;;;;;15.00;52.87;100731.13;4807009;29;20048;-79
2022/06/29 02:42:37;;;;;;;6.60;3.15;;;;;;;15.02;52.83;100717.13;4838307;29;20072;-81
2022/06/29 02:45:04;;;;;;;7.63;3.13;;;;;;;15.09;52.69;100715.28;4825834;29;20101;-80
2022/06/29 02:47:30;;;;;;;8.55;3.47;;;;;;;15.09;52.54;100717.91;4801536;29;20857;-79
2022/06/29 02:49:56;;;;;;;6.90;3.60;;;;;;;15.11;52.41;100696.94;4800443;29;20054;-80
2022/06/29 02:52:22;;;;;;;8.63;3.80;;;;;;;15.23;52.34;100709.84;4788477;29;20135;-79
2022/06/29 02:54:48;;;;;;;5.28;3.20;;;;;;;15.30;52.17;100716.75;4801198;29;20528;-79
2022/06/29 02:57:14;;;;;;;7.30;3.28;;;;;;;15.26;52.22;100698.44;4817017;29;20125;-80
2022/06/29 02:59:41;;;;;;;8.07;3.38;;;;;;;15.45;52.31;100720.03;4796511;29;20066;-76
2022/06/29 03:02:06;;;;;;;7.88;3.50;;;;;;;15.56;52.33;100714.63;4815350;29;20086;-77
2022/06/29 03:04:34;;;;;;;9.57;3.63;;;;;;;15.58;51.96;100695.34;4803019;29;20536;-80
2022/06/29 03:07:01;;;;;;;6.75;3.40;;;;;;;15.79;51.83;100714.28;4833118;29;20070;-81
2022/06/29 03:09:27;;;;;;;5.57;3.10;;;;;;;15.80;51.81;100698.53;4841359;29;20130;-81
2022/06/29 03:11:54;;;;;;;7.60;3.15;;;;;;;15.95;51.61;100710.56;4829595;29;20068;-79
2022/06/29 03:14:20;;;;;;;7.05;3.63;;;;;;;15.98;51.38;100698.28;4817636;29;20046;-79
2022/06/29 03:16:46;;;;;;;6.82;3.92;;;;;;;16.00;51.03;100696.50;4797733;29;20096;-78
2022/06/29 03:19:13;;;;;;;5.97;3.95;;;;;;;16.03;50.89;100691.16;4819010;29;20046;-79
2022/06/29 03:21:39;;;;;;;7.53;3.78;;;;;;;16.13;51.32;100695.38;4816542;29;20074;-80
2022/06/29 03:24:05;;;;;;;14.18;3.58;;;;;;;16.34;51.47;100711.63;4801938;29;20543;-79
2022/06/29 03:26:31;;;;;;;10.32;3.60;;;;;;;16.41;50.76;100693.09;4786507;29;20485;-78
2022/06/29 03:28:57;;;;;;;5.72;3.20;;;;;;;16.41;50.92;100671.25;4815578;29;20043;-79
2022/06/29 03:31:23;;;;;;;13.13;5.00;;;;;;;16.66;50.45;100682.13;4802487;29;20062;-81
2022/06/29 03:33:50;;;;;;;5.93;3.28;;;;;;;16.68;50.31;100680.34;4800290;29;20075;-80
2022/06/29 03:36:16;;;;;;;5.40;3.15;;;;;;;16.82;50.13;100677.44;4794739;29;20050;-79
2022/06/29 03:38:43;;;;;;;5.80;3.33;;;;;;;16.91;49.69;100670.22;4786591;29;20038;-82
2022/06/29 03:41:09;;;;;;;6.90;2.65;;;;;;;17.19;49.37;100703.84;4810542;29;20050;-82
2022/06/29 03:43:35;;;;;;;7.68;3.10;;;;;;;17.32;48.85;100702.69;4817353;29;20050;-81
2022/06/29 03:46:01;;;;;;;6.50;3.47;;;;;;;17.44;48.41;100698.88;4802373;29;20050;-80
2022/06/29 03:48:28;;;;;;;6.03;3.10;;;;;;;17.55;48.01;100698.63;4771566;29;20137;-80
2022/06/29 03:50:54;;;;;;;5.47;3.22;;;;;;;17.59;47.53;100687.13;4782986;29;20061;-81
2022/06/29 03:53:19;;;;;;;3.55;2.55;;;;;;;17.60;47.22;100686.25;4810393;29;20046;-82
2022/06/29 03:55:46;;;;;;;3.33;2.58;;;;;;;17.60;46.96;100688.88;4801198;29;20111;-78
2022/06/29 03:58:12;;;;;;;5.70;2.90;;;;;;;17.64;46.78;100689.69;4817079;29;20038;-81
2022/06/29 04:00:38;;;;;;;3.72;2.42;;;;;;;17.69;46.33;100691.28;4818496;29;20042;-80
2022/06/29 04:03:04;;;;;;;3.85;2.20;;;;;;;17.84;46.06;100692.69;4799138;29;20046;-79
2022/06/29 04:05:30;;;;;;;6.07;2.20;;;;;;;18.04;46.13;100692.19;4817210;29;20102;-77
2022/06/29 04:07:56;;;;;;;7.43;2.88;;;;;;;18.26;45.43;100694.25;4799069;29;20096;-77
2022/06/29 04:10:22;;;;;;;4.85;2.22;;;;;;;18.39;44.96;100686.06;4802048;29;20066;-78
2022/06/29 04:12:49;;;;;;;5.85;2.70;;;;;;;18.55;44.67;100678.56;4803419;29;20054;-78
2022/06/29 04:15:15;;;;;;;3.72;2.50;;;;;;;18.76;44.25;100685.00;4804398;29;20050;-79
2022/06/29 04:17:41;;;;;;;5.93;2.30;;;;;;;18.88;43.72;100691.69;4817614;29;20088;-80
2022/06/29 04:20:07;;;;;;;4.78;2.72;;;;;;;18.84;43.24;100687.41;4815276;29;20085;-80
2022/06/29 04:22:34;;;;;;;3.58;2.30;;;;;;;18.92;43.48;100688.06;4817223;29;20053;-78
2022/06/29 04:25:00;;;;;;;6.70;2.65;;;;;;;18.92;42.97;100683.63;4817887;29;20540;-81
2022/06/29 04:27:26;;;;;;;4.55;2.50;;;;;;;19.09;43.03;100683.19;4813791;29;20390;-79
2022/06/29 04:29:52;;;;;;;3.70;2.20;;;;;;;19.21;42.77;100654.69;4815233;29;20469;-79
2022/06/29 04:32:18;;;;;;;4.70;2.20;;;;;;;19.40;42.68;100678.72;4817345;29;20050;-79
2022/06/29 04:34:44;;;;;;;7.00;2.90;;;;;;;19.37;42.29;100666.50;4801074;29;20062;-79
2022/06/29 04:37:10;;;;;;;7.07;2.65;;;;;;;19.55;41.99;100678.22;4817436;29;20049;-82
2022/06/29 04:39:36;;;;;;;5.20;2.80;;;;;;;19.69;42.21;100679.56;4803983;29;20046;-79
2022/06/29 04:42:03;;;;;;;11.35;2.65;;;;;;;19.81;41.79;100676.50;4823761;29;20049;-79
2022/06/29 04:44:29;;;;;;;6.25;2.50;;;;;;;19.97;41.68;100676.88;4837211;29;20061;-78
2022/06/29 04:46:55;;;;;;;8.15;3.08;;;;;;;20.06;41.51;100670.41;4804674;29;20416;-79
2022/06/29 04:49:21;;;;;;;5.22;2.80;;;;;;;20.15;41.00;100672.75;4791781;29;20146;-78
2022/06/29 04:51:47;;;;;;;4.20;2.70;;;;;;;20.31;40.61;100675.69;4799185;29;20538;-77
2022/06/29 04:54:13;;;;;;;5.78;2.30;;;;;;;20.61;40.18;100677.31;4799092;29;20107;-79
2022/06/29 04:56:39;;;;;;;5.97;2.60;;;;;;;20.84;40.29;100684.41;4817883;29;20054;-79
2022/06/29 04:59:05;;;;;;;6.03;3.00;;;;;;;20.98;39.90;100690.94;4808332;29;20133;-76
2022/06/29 05:01:31;;;;;;;5.15;2.42;;;;;;;20.88;39.96;100683.38;4816827;29;20042;-81
2022/06/29 05:04:01;;;;;;;4.78;2.60;;;;;;;21.03;39.21;100689.84;4809727;29;20042;-79
2022/06/29 05:06:27;;;;;;;5.65;2.80;;;;;;;21.18;38.92;100687.53;4785381;29;20046;-79
2022/06/29 05:08:53;;;;;;;6.32;3.05;;;;;;;21.30;38.79;100667.66;4812889;29;20055;-78
2022/06/29 05:11:22;;;;;;;6.57;3.03;;;;;;;21.48;38.30;100685.44;4808299;29;20106;-79
2022/06/29 05:13:49;;;;;;;3.38;2.10;;;;;;;21.54;38.41;100684.31;4821185;29;20085;-78
2022/06/29 05:16:15;;;;;;;4.53;2.30;;;;;;;21.61;37.67;100680.53;4817111;29;20046;-78
2022/06/29 05:18:41;;;;;;;3.20;2.17;;;;;;;21.62;37.57;100671.66;4804318;29;20038;-80
2022/06/29 05:21:09;;;;;;;7.88;3.60;;;;;;;21.91;37.73;100681.97;4819877;29;20125;-78
2022/06/29 05:23:35;;;;;;;5.18;3.03;;;;;;;22.16;37.32;100679.16;4822160;29;20523;-81
2022/06/29 05:26:01;;;;;;;4.28;2.60;;;;;;;22.23;36.78;100693.84;4818929;29;20049;-80
2022/06/29 05:28:28;;;;;;;8.65;2.58;;;;;;;22.38;36.62;100691.47;4819964;29;20054;-78
2022/06/29 05:30:53;;;;;;;3.08;1.95;;;;;;;22.31;36.64;100684.69;4813996;29;20437;-79
2022/06/29 05:33:20;;;;;;;3.65;2.20;;;;;;;22.38;36.17;100694.09;4821489;29;20042;-80
2022/06/29 05:35:46;;;;;;;3.85;1.92;;;;;;;22.21;36.41;100684.25;4820080;29;20042;-79
2022/06/29 05:38:12;;;;;;;2.58;1.95;;;;;;;22.46;36.04;100678.72;4811501;29;20042;-80
2022/06/29 05:40:38;;;;;;;3.65;2.03;;;;;;;22.66;35.39;100691.09;4816563;29;20042;-78
2022/06/29 05:43:04;;;;;;;5.35;2.00;;;;;;;22.82;34.91;100685.09;4817910;29;20047;-79
2022/06/29 05:45:30;;;;;;;4.40;1.80;;;;;;;22.92;34.37;100680.22;4805296;29;20412;-78
2022/06/29 05:47:57;;;;;;;3.20;2.30;;;;;;;23.03;34.60;100667.31;4806296;29;20522;-82
2022/06/29 05:50:24;;;;;;;5.00;1.98;;;;;;;23.25;34.31;100671.63;4826042;29;20845;-76
2022/06/29 05:52:50;;;;;;;5.53;2.00;;;;;;;23.46;33.93;100640.50;4805093;29;20089;-77
2022/06/29 05:55:17;;;;;;;5.90;2.00;;;;;;;24.63;33.45;100670.81;4801316;29;20039;-81
2022/06/29 05:57:43;;;;;;;5.65;2.45;;;;;;;26.43;31.73;100665.06;4818325;29;20237;-81
2022/06/29 06:00:10;;;;;;;3.08;2.00;;;;;;;28.70;29.34;100642.97;4785341;29;20042;-82
2022/06/29 06:02:40;;;;;;;2.10;1.90;;;;;;;31.01;26.86;100646.03;4818048;29;20053;-78
2022/06/29 06:05:07;;;;;;;3.08;1.73;;;;;;;32.87;24.93;100636.50;4817664;29;20099;-79
2022/06/29 06:07:33;;;;;;;4.05;2.05;;;;;;;34.47;22.67;100610.88;4818482;29;20053;-78
2022/06/29 06:09:59;;;;;;;4.45;1.95;;;;;;;35.95;21.31;100626.78;4810886;29;20113;-79
2022/06/29 06:12:25;;;;;;;7.32;2.45;;;;;;;37.12;20.00;100622.69;4818410;29;20062;-80
2022/06/29 06:14:51;;;;;;;2.75;1.73;;;;;;;38.40;19.22;100622.03;4827887;29;20063;-79
2022/06/29 06:17:17;;;;;;;3.83;2.20;;;;;;;39.22;17.66;100619.81;4824316;29;20030;-78
2022/06/29 06:19:43;;;;;;;3.05;1.90;;;;;;;40.25;16.53;100618.53;4812903;29;20052;-80
2022/06/29 06:22:09;;;;;;;6.60;1.70;;;;;;;41.10;15.30;100607.97;4804378;29;20065;-79
2022/06/29 06:24:35;;;;;;;3.38;1.83;;;;;;;41.75;14.80;100607.03;4804399;29;20106;-79
2022/06/29 06:27:02;;;;;;;3.72;1.80;;;;;;;41.92;14.32;100613.84;4798949;29;20128;-77
2022/06/29 06:29:27;;;;;;;4.45;1.70;;;;;;;42.48;13.97;100614.81;4817628;29;20089;-76
2022/06/29 06:31:53;;;;;;;4.35;1.90;;;;;;;42.95;12.78;100605.84;4802702;29;20454;-81
2022/06/29 06:34:19;;;;;;;2.58;1.70;;;;;;;43.55;12.30;100611.34;4818038;29;20081;-78
2022/06/29 06:36:46;;;;;;;2.85;1.73;;;;;;;44.22;11.70;100603.00;4786313;29;20065;-78
2022/06/29 06:39:12;;;;;;;3.60;1.77;;;;;;;45.05;11.30;100603.16;4803849;29;20504;-78
2022/06/29 06:41:38;;;;;;;3.22;1.60;;;;;;;45.42;10.67;100594.22;4777654;29;20047;-77
2022/06/29 06:44:04;;;;;;;3.58;1.80;;;;;;;45.83;10.40;100592.75;4817847;29;20144;-79
2022/06/29 06:46:30;;;;;;;2.15;1.92;;;;;;;46.24;10.15;100584.88;4815614;29;20061;-80
2022/06/29 06:48:59;;;;;;;2.78;1.65;;;;;;;46.65;9.93;100573.31;4818104;29;20424;-79
2022/06/29 06:51:26;;;;;;;4.95;1.98;;;;;;;47.22;9.57;100594.88;4805718;29;20057;-80
2022/06/29 06:53:52;;;;;;;3.58;2.75;;;;;;;47.51;9.18;100595.00;4817133;29;20046;-76
2022/06/29 06:56:19;;;;;;;4.13;3.83;;;;;;;47.99;8.82;100590.25;4811189;29;20057;-78
2022/06/29 06:58:45;;;;;;;3.45;2.50;;;;;;;48.48;8.35;100583.50;4819252;29;20043;-77
2022/06/29 07:01:11;;;;;;;2.50;2.30;;;;;;;48.73;7.79;100576.78;4817622;29;20046;-79
2022/06/29 07:03:38;;;;;;;2.15;1.92;;;;;;;49.15;7.22;100579.97;4809888;29;20087;-80
2022/06/29 07:06:10;;;;;;;2.60;2.40;;;;;;;48.92;7.21;100582.88;4817831;29;20098;-78
2022/06/29 07:08:39;;;;;;;2.53;1.95;;;;;;;48.23;7.60;100579.97;4818044;29;20034;-82
2022/06/29 07:11:06;;;;;;;5.75;3.05;;;;;;;47.63;7.86;100581.22;4802568;29;20051;-82
2022/06/29 07:13:34;;;;;;;3.25;2.00;;;;;;;47.52;8.09;100574.63;4817814;29;20549;-79
2022/06/29 07:16:05;;;;;;;11.90;10.68;;;;;;;48.15;7.81;100560.22;4817060;29;20054;-81
2022/06/29 07:18:37;;;;;;;5.65;3.58;;;;;;;49.17;7.18;100570.59;4813365;29;20043;-79
2022/06/29 07:21:03;;;;;;;6.07;5.53;;;;;;;49.54;7.24;100554.28;4799977;29;20069;-78
2022/06/29 07:23:32;;;;;;;2.10;1.90;;;;;;;49.34;6.95;100565.03;4803083;29;20081;-81
2022/06/29 07:25:58;;;;;;;6.13;5.60;;;;;;;49.22;7.34;100568.72;4817812;29;20054;-78
2022/06/29 07:28:25;;;;;;;3.85;3.20;;;;;;;49.53;6.98;100569.19;4818568;29;20077;-78
2022/06/29 07:30:51;;;;;;;2.60;2.40;;;;;;;50.17;6.64;100558.69;4802792;29;20049;-78
2022/06/29 07:33:17;;;;;;;7.50;6.90;;;;;;;49.73;6.52;100562.25;4817712;29;20042;-78
2022/06/29 07:35:43;;;;;;;3.15;2.00;;;;;;;49.88;6.33;100570.75;4816619;29;20046;-81
2022/06/29 07:38:10;;;;;;;5.55;2.10;;;;;;;49.91;6.19;100560.28;4816909;29;20095;-77
2022/06/29 07:40:36;;;;;;;6.10;3.90;;;;;;;49.15;6.71;100557.88;4799913;29;20055;-80
2022/06/29 07:43:02;;;;;;;3.58;3.15;;;;;;;49.17;6.48;100546.59;4815932;29;20046;-79
2022/06/29 07:45:28;;;;;;;2.63;2.33;;;;;;;49.46;6.37;100568.53;4816811;29;20058;-78
2022/06/29 07:47:54;;;;;;;2.67;2.47;;;;;;;49.82;6.54;100559.91;4824402;29;20057;-80
2022/06/29 07:50:21;;;;;;;2.72;2.53;;;;;;;49.81;6.49;100539.72;4838360;29;20054;-78
2022/06/29 07:52:47;;;;;;;4.63;2.47;;;;;;;49.89;6.24;100555.03;4799927;29;20073;-82
2022/06/29 07:55:13;;;;;;;4.78;3.83;;;;;;;50.10;6.09;100558.00;4809027;29;20543;-81
2022/06/29 07:57:39;;;;;;;4.68;2.75;;;;;;;50.14;6.19;100554.47;4796314;29;20074;-81
2022/06/29 08:00:06;;;;;;;4.95;3.45;;;;;;;50.77;6.14;100550.38;4819827;29;20047;-81
2022/06/29 08:02:38;;;;;;;3.15;2.15;;;;;;;50.82;5.87;100546.78;4817131;29;20505;-78
2022/06/29 08:05:04;;;;;;;2.90;1.95;;;;;;;50.57;5.79;100534.44;4816924;29;20106;-79
2022/06/29 08:07:31;;;;;;;3.30;2.35;;;;;;;50.92;5.96;100536.66;4823997;29;20068;-79
2022/06/29 08:09:57;;;;;;;33.10;30.17;;;;;;;51.00;6.17;100545.59;4820620;29;20062;-82
2022/06/29 08:12:23;;;;;;;3.13;2.30;;;;;;;50.79;6.00;100526.03;4817465;29;20144;-81
2022/06/29 08:14:49;;;;;;;4.57;3.25;;;;;;;51.29;5.77;100534.16;4798399;29;20185;-79
2022/06/29 08:17:15;;;;;;;5.00;2.65;;;;;;;51.73;5.32;100532.97;4816901;29;20137;-81
2022/06/29 08:19:41;;;;;;;6.32;2.38;;;;;;;51.14;5.35;100523.78;4819872;29;20053;-81
2022/06/29 08:22:08;;;;;;;4.90;2.28;;;;;;;50.25;5.58;100515.88;4800463;29;20058;-81
2022/06/29 08:24:34;;;;;;;6.15;2.28;;;;;;;50.08;6.33;100518.72;4819460;29;20046;-79
2022/06/29 08:27:00;;;;;;;4.35;1.90;;;;;;;50.79;5.69;100523.25;4818391;29;20149;-80
2022/06/29 08:29:25;;;;;;;4.28;2.10;;;;;;;51.71;5.55;100518.53;4787863;29;20034;-79
2022/06/29 08:31:51;;;;;;;3.45;2.35;;;;;;;51.93;5.33;100519.16;4791205;29;20505;-81
2022/06/29 08:34:51;;;;;;;5.70;2.40;;;;;;;51.72;5.25;100507.19;4815811;29;20065;-81
2022/06/29 08:37:10;;;;;;;5.72;2.40;;;;;;;52.03;4.74;100515.59;4816438;29;20093;-82
2022/06/29 08:39:36;;;;;;;3.70;2.75;;;;;;;51.92;4.82;100516.69;4819202;29;20096;-80
2022/06/29 08:42:04;;;;;;;5.05;3.25;;;;;;;50.96;5.14;100513.97;4821952;29;20147;-79
2022/06/29 08:44:35;;;;;;;9.00;8.10;;;;;;;50.56;5.21;100497.63;4791414;29;20042;-79
2022/06/29 08:47:03;;;;;;;3.00;2.47;;;;;;;50.41;5.17;100500.25;4820901;29;20073;-78
2022/06/29 08:49:37;;;;;;;4.75;4.28;;;;;;;49.82;5.54;100499.09;4786467;29;20043;-79
2022/06/29 08:52:05;;;;;;;2.90;2.00;;;;;;;50.12;6.02;100503.28;4816025;29;20061;-82
2022/06/29 08:54:35;;;;;;;2.60;2.20;;;;;;;50.84;5.16;100509.47;4817474;29;20046;-82
2022/06/29 08:57:03;;;;;;;3.60;2.10;;;;;;;51.71;4.56;100504.66;4816419;29;20500;-80
2022/06/29 08:59:29;;;;;;;5.05;4.63;;;;;;;51.39;4.94;100489.84;4801417;29;20050;-80
2022/06/29 09:02:04;;;;;;;5.00;3.63;;;;;;;50.75;5.57;100488.91;4827603;29;20042;-80
2022/06/29 09:04:31;;;;;;;7.32;6.00;;;;;;;50.11;5.75;100496.91;4794776;29;20054;-80
2022/06/29 09:06:57;;;;;;;5.85;5.28;;;;;;;50.34;5.60;100489.38;4819424;29;20050;-79
2022/06/29 09:09:24;;;;;;;8.70;8.00;;;;;;;50.87;4.89;100486.78;4816499;29;20058;-80
2022/06/29 09:11:52;;;;;;;16.27;14.93;;;;;;;51.32;4.45;100490.09;4799676;29;20129;-81
2022/06/29 09:14:27;;;;;;;4.03;3.47;;;;;;;51.50;4.35;100491.56;4802132;29;20161;-82
2022/06/29 09:16:56;;;;;;;9.48;8.57;;;;;;;50.97;4.41;100487.97;4799439;29;20042;-79
2022/06/29 09:19:24;;;;;;;;;;;;;;;50.73;4.87;100482.78;4808159;29;20050;-81
2022/06/29 09:21:52;;;;;;;3.67;2.60;;;;;;;51.08;5.37;100478.63;4822362;29;19928;-80
2022/06/29 09:25:21;;;;;;;2.65;2.53;;;;;;;51.61;4.72;100488.84;4821679;29;20057;-81
2022/06/29 09:27:47;;;;;;;2.03;1.90;;;;;;;51.04;4.63;100481.06;4829629;29;20050;-81
2022/06/29 09:30:30;;;;;;;4.18;1.80;;;;;;;49.02;5.46;100469.84;4816775;29;20050;-79
2022/06/29 09:33:07;;;;;;;2.25;2.05;;;;;;;48.48;5.84;100476.72;4814765;29;20389;-79
2022/06/29 09:35:34;;;;;;;2.33;2.22;;;;;;;48.81;5.68;100472.31;4792467;29;20038;-78
2022/06/29 09:38:20;;;;;;;4.10;1.70;;;;;;;49.45;5.41;100484.00;4794670;29;20061;-81
2022/06/29 09:41:18;;;;;;;2.80;2.60;;;;;;;49.38;5.31;100472.28;4800658;29;20042;-81
2022/06/29 09:43:46;;;;;;;3.97;2.23;;;;;;;49.37;5.10;100476.13;4778053;29;20062;-80
2022/06/29 09:46:16;;;;;;;4.85;2.25;;;;;;;49.27;4.66;100466.63;4801852;29;20395;-78
2022/06/29 09:48:43;;;;;;;2.53;2.25;;;;;;;49.37;4.61;100456.81;4806606;29;20513;-80
2022/06/29 09:54:06;;;;;;;4.03;2.40;;;;;;;49.23;5.37;100468.22;4818851;29;20053;-81
2022/06/29 09:56:33;;;;;;;3.17;2.05;;;;;;;49.15;5.22;100469.50;4808729;29;20042;-79
2022/06/29 10:02:41;;;;;;;2.25;1.80;;;;;;;47.77;5.68;100471.56;4794640;29;20093;-79
2022/06/29 10:05:16;;;;;;;2.75;1.75;;;;;;;47.69;5.61;100474.72;4797342;29;20043;-80
2022/06/29 10:07:48;;;;;;;4.38;3.97;;;;;;;48.20;5.59;100467.44;4809116;29;20166;-79
2022/06/29 10:10:21;;;;;;;3.53;1.83;;;;;;;47.90;5.50;100464.91;4819458;29;20076;-82
2022/06/29 10:13:39;;;;;;;8.15;2.05;;;;;;;47.49;5.74;100456.66;4817601;29;20046;-80
2022/06/29 10:16:23;;;;;;;3.47;1.70;;;;;;;47.32;5.65;100453.81;4818449;29;20057;-80
2022/06/29 10:19:21;;;;;;;3.35;2.10;;;;;;;47.40;5.62;100438.81;4787477;29;20744;-81
2022/06/29 10:21:47;;;;;;;2.08;1.85;;;;;;;48.19;5.65;100451.13;4811562;29;20042;-79
2022/06/29 10:24:17;;;;;;;3.65;2.25;;;;;;;47.53;5.73;100440.47;4817437;29;20557;-78
2022/06/29 10:26:45;;;;;;;3.08;2.72;;;;;;;47.13;6.02;100436.56;4798526;29;20497;-81
2022/06/29 10:29:23;;;;;;;15.23;13.73;;;;;;;45.21;6.48;100449.97;4817541;29;20046;-80
2022/06/29 10:31:56;;;;;;;3.05;2.67;;;;;;;43.14;7.67;100445.47;4799323;29;20058;-82
2022/06/29 10:34:34;;;;;;;4.15;3.15;;;;;;;41.24;8.58;100454.25;4816786;29;20050;-77
2022/06/29 10:37:16;;;;;;;1.60;1.45;;;;;;;39.51;8.99;100433.19;4818279;29;20137;-80
2022/06/29 10:39:45;;;;;;;7.63;1.70;;;;;;;38.16;9.83;100445.56;4817034;29;20106;-81
2022/06/29 10:45:19;;;;;;;2.28;1.48;;;;;;;34.00;11.56;100447.13;4818410;29;20051;-80
2022/06/29 10:47:55;;;;;;;1.50;1.40;;;;;;;32.84;12.78;100460.78;4811405;29;20639;-82
2022/06/29 10:50:23;;;;;;;2.28;1.30;;;;;;;32.33;13.28;100462.72;4819116;29;20125;-76
2022/06/29 10:52:54;;;;;;;2.78;1.67;;;;;;;31.94;13.37;100441.94;4810411;29;20050;-80
2022/06/29 10:55:28;;;;;;;5.57;1.95;;;;;;;31.73;13.14;100458.16;4818017;29;20050;-80
2022/06/29 10:57:54;;;;;;;2.47;1.60;;;;;;;30.98;13.84;100450.19;4841190;29;20045;-78
2022/06/29 11:00:23;;;;;;;1.70;1.60;;;;;;;30.76;14.40;100452.00;4836124;29;20053;-80
2022/06/29 11:02:52;;;;;;;5.07;1.92;;;;;;;30.56;14.74;100434.88;4803763;29;20049;-75
2022/06/29 11:05:19;;;;;;;1.60;1.40;;;;;;;30.51;15.04;100443.28;4811459;29;20057;-80
2022/06/29 11:13:23;;;;;;;3.17;1.73;;;;;;;29.82;15.25;100453.25;4816709;29;20056;-80
2022/06/29 11:15:55;;;;;;;3.58;1.90;;;;;;;29.14;15.60;100448.69;4799467;29;20066;-79
2022/06/29 11:18:32;;;;;;;4.68;1.55;;;;;;;28.86;15.69;100441.91;4817128;29;20472;-80
2022/06/29 11:21:03;;;;;;;2.42;1.52;;;;;;;28.81;16.06;100442.25;4810324;29;20115;-82
2022/06/29 11:23:31;;;;;;;5.57;1.65;;;;;;;28.77;16.60;100438.13;4798990;29;20043;-82
2022/06/29 11:25:58;;;;;;;2.15;1.50;;;;;;;28.75;17.07;100437.38;4802178;29;20086;-80
2022/06/29 11:28:29;;;;;;;2.90;1.50;;;;;;;28.55;17.24;100417.44;4817808;29;20042;-81
2022/06/29 11:31:08;;;;;;;1.65;1.55;;;;;;;28.30;17.07;100410.38;4818542;29;20046;-80
2022/06/29 11:33:43;;;;;;;3.67;1.70;;;;;;;28.35;17.08;100440.34;4801567;29;20509;-82
2022/06/29 11:36:14;;;;;;;3.13;1.60;;;;;;;27.85;17.24;100433.16;4813373;29;20145;-78
2022/06/29 11:38:41;;;;;;;2.00;1.60;;;;;;;27.56;17.46;100432.59;4819804;29;20568;-79
2022/06/29 11:41:15;;;;;;;3.28;1.70;;;;;;;27.43;17.70;100424.53;4816791;29;20050;-80
2022/06/29 11:43:42;;;;;;;2.25;1.88;;;;;;;27.36;17.75;100418.78;4818618;29;20065;-82
2022/06/29 11:46:22;;;;;;;1.65;1.55;;;;;;;27.23;18.01;100413.44;4816698;29;20525;-81
2022/06/29 11:51:58;;;;;;;3.70;1.70;;;;;;;27.03;17.96;100410.28;4815681;29;20074;-78